Time;durP1;ratioP1;P1;durP2;ratioP2;P2;SDS_P1;SDS_P2;PMS_P1;PMS_P2;Temp;Humidity;BMP_temperature;BMP_pressure;BME280_temperature;BME280_humidity;BME280_pressure;Samples;Min_cycle;Max_cycle;Signal;HPM_P1;HPM_P2
2022/06/07 00:00:05;;;;;;;;;;;28.30;41.40;;;;;;5079906;28;995;-33
2022/06/07 00:02:33;;;;;;;;;;;28.20;41.60;;;;;;5080141;28;954;-35
2022/06/07 00:05:00;;;;;;;;;;;28.30;41.50;;;;;;5079665;28;965;-35
2022/06/07 00:07:27;;;;;;;;;;;28.20;41.50;;;;;;5077917;28;996;-35
2022/06/07 00:09:54;;;;;;;;;;;28.30;41.60;;;;;;5078134;28;999;-36
2022/06/07 00:12:21;;;;;;;;;;;28.30;41.60;;;;;;5079788;28;1984;-36
2022/06/07 00:14:48;;;;;;;;;;;28.30;41.40;;;;;;5079749;28;1099;-35
2022/06/07 00:17:15;;;;;;;;;;;28.20;41.60;;;;;;5079464;28;1085;-36
2022/06/07 00:19:43;;;;;;;;;;;28.30;41.70;;;;;;5079676;28;936;-35
2022/06/07 00:22:10;;;;;;;;;;;28.20;41.70;;;;;;5079614;28;1853;-35
2022/06/07 00:24:37;;;;;;;;;;;28.30;41.60;;;;;;5079689;28;937;-35
2022/06/07 00:27:04;;;;;;;;;;;28.20;41.60;;;;;;5079178;28;1011;-35
2022/06/07 00:29:31;;;;;;;;;;;28.20;41.70;;;;;;5078913;28;1092;-35
2022/06/07 00:31:58;;;;;;;;;;;28.10;41.70;;;;;;5078916;28;1903;-36
2022/06/07 00:34:25;;;;;;;;;;;28.20;41.80;;;;;;5079122;28;1008;-33
2022/06/07 00:36:53;;;;;;;;;;;28.20;41.60;;;;;;5078970;28;2723;-35
2022/06/07 00:39:20;;;;;;;;;;;28.20;41.70;;;;;;5078451;28;1012;-36
2022/06/07 00:41:47;;;;;;;;;;;28.20;41.80;;;;;;5079401;28;988;-34
2022/06/07 00:44:34;;;;;;;;;;;28.10;41.80;;;;;;5078875;28;1023;-38
2022/06/07 00:47:02;;;;;;;;;;;28.10;43.00;;;;;;5073423;28;1276;-35
2022/06/07 00:49:31;;;;;;;;;;;28.10;41.70;;;;;;5079133;28;981;-36
2022/06/07 00:51:59;;;;;;;;;;;28.20;41.60;;;;;;5078853;28;1986;-35
2022/06/07 00:54:27;;;;;;;;;;;28.20;41.70;;;;;;5078889;28;1004;-34
2022/06/07 00:56:54;;;;;;;;;;;28.20;41.70;;;;;;5078715;28;952;-35
2022/06/07 00:59:21;;;;;;;;;;;28.20;41.70;;;;;;5077884;28;1023;-36
2022/06/07 01:01:48;;;;;;;;;;;28.20;41.80;;;;;;5078709;28;964;-35
2022/06/07 01:04:14;;;;;;;;;;;28.10;41.90;;;;;;5078609;28;980;-36
2022/06/07 01:12:11;;;;;;;;;;;28.10;41.80;;;;;;5078075;28;1913;-34
2022/06/07 01:14:39;;;;;;;;;;;28.10;41.80;;;;;;5078178;28;1199;-35
2022/06/07 01:17:06;;;;;;;;;;;28.10;41.80;;;;;;5077874;28;925;-35
2022/06/07 01:19:32;;;;;;;;;;;28.10;41.80;;;;;;5076569;28;931;-37
2022/06/07 01:22:01;;;;;;;;;;;28.10;41.70;;;;;;5077602;28;936;-40
2022/06/07 01:24:27;;;;;;;;;;;28.10;41.80;;;;;;5077772;28;1026;-40
2022/06/07 01:26:54;;;;;;;;;;;28.10;41.80;;;;;;5076928;28;1009;-40
2022/06/07 01:29:22;;;;;;;;;;;28.10;41.80;;;;;;5077944;28;905;-40
2022/06/07 01:31:48;;;;;;;;;;;28.10;41.80;;;;;;5077047;28;1985;-41
2022/06/07 01:34:15;;;;;;;;;;;28.00;41.80;;;;;;5076689;28;933;-39
2022/06/07 01:36:42;;;;;;;;;;;28.00;41.90;;;;;;5076161;28;925;-40
2022/06/07 01:42:00;;;;;;;;;;;28.00;41.70;;;;;;5020119;28;1193;-41
2022/06/07 01:44:27;;;;;;;;;;;28.00;41.90;;;;;;5076997;28;1024;-40
2022/06/07 01:46:55;;;;;;;;;;;28.00;41.80;;;;;;5076655;28;1003;-40
2022/06/07 01:49:23;;;;;;;;;;;28.00;41.80;;;;;;5077168;28;1021;-40
2022/06/07 01:51:50;;;;;;;;;;;28.00;41.70;;;;;;5076609;28;1902;-40
2022/06/07 01:54:18;;;;;;;;;;;27.90;41.80;;;;;;5077468;28;988;-40
2022/06/07 01:56:45;;;;;;;;;;;28.00;41.70;;;;;;5077876;28;1011;-40
2022/06/07 01:59:11;;;;;;;;;;;28.00;41.70;;;;;;5077671;28;952;-40
2022/06/07 02:01:38;;;;;;;;;;;27.90;41.70;;;;;;5076815;28;1067;-40
2022/06/07 02:04:06;;;;;;;;;;;27.90;41.70;;;;;;5077746;28;920;-40
2022/06/07 02:06:33;;;;;;;;;;;27.90;41.70;;;;;;5078579;28;948;-39
2022/06/07 02:08:59;;;;;;;;;;;27.90;41.80;;;;;;5077493;28;983;-40
2022/06/07 02:11:28;;;;;;;;;;;27.90;41.70;;;;;;5077491;28;1894;-40
2022/06/07 02:13:55;;;;;;;;;;;27.90;41.60;;;;;;5078126;28;2054;-40
2022/06/07 02:16:22;;;;;;;;;;;27.90;41.60;;;;;;5077958;28;1207;-40
2022/06/07 02:18:49;;;;;;;;;;;27.90;41.60;;;;;;5078490;28;953;-40
2022/06/07 02:21:17;;;;;;;;;;;27.90;41.70;;;;;;5077618;28;924;-40
2022/06/07 02:23:44;;;;;;;;;;;27.90;41.60;;;;;;5078097;28;957;-40
2022/06/07 02:26:13;;;;;;;;;;;28.00;41.40;;;;;;5078196;28;968;-40
2022/06/07 02:28:42;;;;;;;;;;;27.90;41.50;;;;;;5077651;28;1090;-39
2022/06/07 02:31:10;;;;;;;;;;;27.90;41.70;;;;;;5080119;28;1910;-40
2022/06/07 02:33:37;;;;;;;;;;;27.90;41.50;;;;;;5081922;28;971;-40
2022/06/07 02:36:05;;;;;;;;;;;27.90;41.50;;;;;;5080871;28;980;-40
2022/06/07 02:38:32;;;;;;;;;;;27.90;41.70;;;;;;5081264;28;977;-40
2022/06/07 02:40:59;;;;;;;;;;;27.90;41.50;;;;;;5081069;28;1019;-40
2022/06/07 02:43:26;;;;;;;;;;;27.90;41.50;;;;;;5081818;28;988;-40
2022/06/07 02:45:54;;;;;;;;;;;27.90;41.40;;;;;;5081334;28;1011;-40
2022/06/07 02:48:21;;;;;;;;;;;27.90;41.40;;;;;;5081009;28;1054;-40
2022/06/07 02:50:48;;;;;;;;;;;27.80;41.50;;;;;;5081247;28;937;-40
2022/06/07 02:53:15;;;;;;;;;;;28.00;41.30;;;;;;5080551;28;1988;-39
2022/06/07 02:55:41;;;;;;;;;;;27.90;41.40;;;;;;5080652;28;980;-40
2022/06/07 02:58:08;;;;;;;;;;;27.80;41.50;;;;;;5081121;28;1056;-40
2022/06/07 03:00:35;;;;;;;;;;;27.80;41.50;;;;;;5080672;28;996;-40
2022/06/07 03:03:03;;;;;;;;;;;27.90;41.40;;;;;;5080673;28;1004;-40
2022/06/07 03:05:30;;;;;;;;;;;27.90;41.20;;;;;;5080365;28;1000;-40
2022/06/07 03:07:56;;;;;;;;;;;27.90;41.10;;;;;;5080249;28;980;-41
2022/06/07 03:10:23;;;;;;;;;;;27.90;41.10;;;;;;5080465;28;944;-40
2022/06/07 03:12:50;;;;;;;;;;;27.90;41.10;;;;;;5079806;28;1981;-41
2022/06/07 03:15:17;;;;;;;;;;;27.80;41.30;;;;;;5080022;28;1251;-39
2022/06/07 03:17:44;;;;;;;;;;;27.80;41.30;;;;;;5078701;28;949;-41
2022/06/07 03:20:13;;;;;;;;;;;27.90;41.10;;;;;;5078805;28;1004;-40
2022/06/07 03:22:40;;;;;;;;;;;27.90;41.10;;;;;;5080315;28;1040;-40
2022/06/07 03:25:07;;;;;;;;;;;27.90;41.00;;;;;;5079369;28;1005;-40
2022/06/07 03:27:35;;;;;;;;;;;27.90;41.00;;;;;;5080371;28;991;-40
2022/06/07 03:30:02;;;;;;;;;;;27.90;41.00;;;;;;5079531;28;906;-40
2022/06/07 03:32:28;;;;;;;;;;;27.80;41.10;;;;;;5079684;28;1985;-40
2022/06/07 03:34:55;;;;;;;;;;;27.80;41.10;;;;;;5079846;28;1035;-40
2022/06/07 03:37:23;;;;;;;;;;;27.80;41.10;;;;;;5080486;28;1015;-40
2022/06/07 03:39:50;;;;;;;;;;;27.80;41.30;;;;;;5080888;28;1213;-40
2022/06/07 03:42:17;;;;;;;;;;;27.80;41.40;;;;;;5079293;28;1061;-41
2022/06/07 03:44:48;;;;;;;;;;;27.80;41.10;;;;;;5079586;28;1018;-40
2022/06/07 03:47:15;;;;;;;;;;;27.90;41.10;;;;;;5079130;28;924;-41
2022/06/07 03:49:41;;;;;;;;;;;27.80;41.10;;;;;;5079896;28;995;-40
2022/06/07 03:52:08;;;;;;;;;;;27.80;41.20;;;;;;5079866;28;1980;-40
2022/06/07 03:54:36;;;;;;;;;;;27.70;41.10;;;;;;5078837;28;1044;-41
2022/06/07 03:57:03;;;;;;;;;;;27.80;41.20;;;;;;5078510;28;984;-40
2022/06/07 03:59:30;;;;;;;;;;;27.80;41.10;;;;;;5077565;28;940;-40
2022/06/07 04:01:57;;;;;;;;;;;27.80;41.00;;;;;;5078274;28;995;-43
2022/06/07 04:04:24;;;;;;;;;;;27.80;40.90;;;;;;5078747;28;957;-40
2022/06/07 04:09:31;;;;;;;;;;;27.90;40.80;;;;;;5078263;28;815;-40
2022/06/07 04:11:59;;;;;;;;;;;27.80;41.00;;;;;;5078710;28;1906;-40
2022/06/07 04:14:26;;;;;;;;;;;27.80;41.10;;;;;;5077408;28;1056;-40
2022/06/07 04:16:53;;;;;;;;;;;27.70;41.00;;;;;;5077929;28;1006;-40
2022/06/07 04:19:20;;;;;;;;;;;27.80;41.10;;;;;;5078191;28;977;-41
2022/06/07 04:21:46;;;;;;;;;;;27.80;41.00;;;;;;5077816;28;1842;-40
2022/06/07 04:24:13;;;;;;;;;;;27.80;40.90;;;;;;5078645;28;892;-40
2022/06/07 04:26:40;;;;;;;;;;;27.90;40.90;;;;;;5077581;28;957;-40
2022/06/07 04:29:08;;;;;;;;;;;27.90;40.80;;;;;;5077780;28;929;-40
2022/06/07 04:31:34;;;;;;;;;;;27.80;40.80;;;;;;5077143;28;1970;-43
2022/06/07 04:34:01;;;;;;;;;;;27.80;40.90;;;;;;5077008;28;960;-44
2022/06/07 04:36:28;;;;;;;;;;;27.70;40.90;;;;;;5076429;28;996;-41
2022/06/07 04:38:56;;;;;;;;;;;27.80;41.00;;;;;;5076393;28;1130;-41
2022/06/07 04:41:24;;;;;;;;;;;27.80;41.00;;;;;;5077462;28;859;-41
2022/06/07 04:43:51;;;;;;;;;;;27.80;40.90;;;;;;5077225;28;1091;-41
2022/06/07 04:46:21;;;;;;;;;;;27.80;41.00;;;;;;5077048;28;1036;-42
2022/06/07 04:48:48;;;;;;;;;;;27.80;41.10;;;;;;5076091;28;962;-41
2022/06/07 04:51:16;;;;;;;;;;;27.80;41.10;;;;;;5076324;28;1023;-42
2022/06/07 04:53:43;;;;;;;;;;;27.80;41.00;;;;;;5075583;28;1973;-41
2022/06/07 04:56:11;;;;;;;;;;;27.80;41.10;;;;;;5076220;28;1039;-41
2022/06/07 04:58:37;;;;;;;;;;;27.80;41.10;;;;;;5075898;28;1015;-42
2022/06/07 05:01:08;;;;;;;;;;;27.80;41.00;;;;;;5075822;28;988;-41
2022/06/07 05:03:36;;;;;;;;;;;27.80;40.80;;;;;;5076011;28;985;-41
2022/06/07 05:06:03;;;;;;;;;;;27.80;40.90;;;;;;5074752;28;976;-41
2022/06/07 05:08:30;;;;;;;;;;;27.80;40.90;;;;;;5076841;28;940;-41
2022/06/07 05:10:59;;;;;;;;;;;27.80;40.90;;;;;;5075340;28;948;-41
2022/06/07 05:13:25;;;;;;;;;;;27.90;40.80;;;;;;5075751;28;1977;-40
2022/06/07 05:15:55;;;;;;;;;;;27.90;40.80;;;;;;5075479;28;1023;-41
2022/06/07 05:18:22;;;;;;;;;;;27.90;40.90;;;;;;5074233;28;1013;-41
2022/06/07 05:20:50;;;;;;;;;;;27.80;40.90;;;;;;5073357;28;973;-41
2022/06/07 05:23:17;;;;;;;;;;;27.80;41.10;;;;;;5074731;28;948;-42
2022/06/07 05:25:52;;;;;;;;;;;27.70;41.00;;;;;;5074014;28;1001;-41
2022/06/07 05:28:19;;;;;;;;;;;27.70;40.90;;;;;;5073696;28;1131;-41
2022/06/07 05:30:46;;;;;;;;;;;27.80;41.00;;;;;;5073273;28;885;-41
2022/06/07 05:33:12;;;;;;;;;;;27.80;41.00;;;;;;5074011;28;1906;-41
2022/06/07 05:35:39;;;;;;;;;;;27.70;40.90;;;;;;5074932;28;940;-42
2022/06/07 05:38:09;;;;;;;;;;;27.80;41.00;;;;;;5074788;28;899;-41
2022/06/07 05:40:36;;;;;;;;;;;27.80;40.90;;;;;;5073475;28;932;-41
2022/06/07 05:43:04;;;;;;;;;;;27.70;41.00;;;;;;5073891;28;1052;-42
2022/06/07 05:45:31;;;;;;;;;;;27.80;40.90;;;;;;5074398;28;920;-41
2022/06/07 05:47:58;;;;;;;;;;;27.80;40.80;;;;;;5074682;28;993;-41
2022/06/07 05:50:25;;;;;;;;;;;27.80;41.00;;;;;;5074141;28;984;-41
2022/06/07 05:52:52;;;;;;;;;;;27.70;40.90;;;;;;5075424;28;1980;-41
2022/06/07 05:55:20;;;;;;;;;;;27.80;41.00;;;;;;5074684;28;1034;-42
2022/06/07 05:57:50;;;;;;;;;;;27.80;41.00;;;;;;5074505;28;1026;-40
2022/06/07 06:00:17;;;;;;;;;;;27.80;41.10;;;;;;5074841;28;1034;-41
2022/06/07 06:02:44;;;;;;;;;;;27.80;40.80;;;;;;5074784;28;896;-42
2022/06/07 06:05:11;;;;;;;;;;;27.80;40.90;;;;;;5075183;28;932;-41
2022/06/07 06:10:19;;;;;;;;;;;27.80;41.00;;;;;;5074924;28;977;-41
2022/06/07 06:10:25;;;;;;;;;;;27.80;40.90;;;;;;5075284;28;675;-41
2022/06/07 06:12:52;;;;;;;;;;;27.80;41.10;;;;;;5072898;28;1902;-42
2022/06/07 06:15:18;;;;;;;;;;;27.80;41.00;;;;;;5073515;28;1136;-41
2022/06/07 06:17:45;;;;;;;;;;;27.80;41.10;;;;;;5074729;28;1220;-42
2022/06/07 06:20:12;;;;;;;;;;;27.80;41.10;;;;;;5073621;28;943;-42
2022/06/07 06:22:39;;;;;;;;;;;27.70;41.00;;;;;;5074869;28;998;-42
2022/06/07 06:25:06;;;;;;;;;;;27.70;41.10;;;;;;5073437;28;908;-43
2022/06/07 06:27:34;;;;;;;;;;;27.70;41.10;;;;;;5073395;28;929;-42
2022/06/07 06:30:01;;;;;;;;;;;27.80;41.10;;;;;;5073254;28;671;-42
2022/06/07 06:32:28;;;;;;;;;;;27.80;41.10;;;;;;5073087;28;1906;-42
2022/06/07 06:34:55;;;;;;;;;;;27.90;41.10;;;;;;5074821;28;940;-42
2022/06/07 06:37:21;;;;;;;;;;;27.80;41.30;;;;;;5073888;28;1011;-43
2022/06/07 06:39:48;;;;;;;;;;;27.80;41.40;;;;;;5074410;28;967;-42
2022/06/07 06:42:15;;;;;;;;;;;27.80;41.30;;;;;;5073803;28;1003;-42
2022/06/07 06:44:43;;;;;;;;;;;27.80;41.30;;;;;;5073429;28;1028;-43
2022/06/07 06:47:11;;;;;;;;;;;27.90;41.20;;;;;;5074362;28;988;-44
2022/06/07 06:49:38;;;;;;;;;;;27.90;41.30;;;;;;5073384;28;983;-43
2022/06/07 06:52:05;;;;;;;;;;;28.00;41.10;;;;;;5074518;28;1038;-45
2022/06/07 06:54:33;;;;;;;;;;;28.10;40.90;;;;;;5074018;28;1963;-45
2022/06/07 06:57:00;;;;;;;;;;;28.20;40.70;;;;;;5073096;28;944;-45
2022/06/07 06:59:26;;;;;;;;;;;28.20;40.50;;;;;;5073328;28;1035;-45
2022/06/07 07:01:55;;;;;;;;;;;28.20;40.40;;;;;;5073652;28;980;-45
2022/06/07 07:04:21;;;;;;;;;;;28.20;40.40;;;;;;5073520;28;964;-45
2022/06/07 07:06:49;;;;;;;;;;;28.20;40.60;;;;;;5073194;28;1019;-44
2022/06/07 07:09:17;;;;;;;;;;;28.20;40.50;;;;;;5073060;28;952;-45
2022/06/07 07:11:45;;;;;;;;;;;28.20;40.40;;;;;;5073030;28;1019;-45
2022/06/07 07:14:12;;;;;;;;;;;28.20;40.40;;;;;;5072145;28;1992;-45
2022/06/07 07:16:41;;;;;;;;;;;28.30;40.50;;;;;;5075430;28;1009;-45
2022/06/07 07:19:09;;;;;;;;;;;28.20;40.50;;;;;;5076315;28;925;-45
2022/06/07 07:21:37;;;;;;;;;;;28.20;40.40;;;;;;5076066;28;1027;-45
2022/06/07 07:24:05;;;;;;;;;;;28.20;40.40;;;;;;5076239;28;936;-47
2022/06/07 07:26:32;;;;;;;;;;;28.20;40.30;;;;;;5076664;28;943;-44
2022/06/07 07:28:59;;;;;;;;;;;28.20;40.40;;;;;;5077353;28;1046;-45
2022/06/07 07:31:30;;;;;;;;;;;28.20;40.50;;;;;;5076634;28;1778;-45
2022/06/07 07:33:57;;;;;;;;;;;28.30;40.50;;;;;;5076956;28;1906;-45
2022/06/07 07:36:26;;;;;;;;;;;28.30;40.30;;;;;;5076881;28;944;-45
2022/06/07 07:38:52;;;;;;;;;;;28.20;40.40;;;;;;5075955;28;1043;-44
2022/06/07 07:41:21;;;;;;;;;;;28.20;40.30;;;;;;5076326;28;944;-45
2022/06/07 07:43:48;;;;;;;;;;;28.20;40.30;;;;;;5077167;28;1034;-45
2022/06/07 07:46:15;;;;;;;;;;;28.20;40.40;;;;;;5076996;28;1797;-44
2022/06/07 07:48:42;;;;;;;;;;;28.10;40.40;;;;;;5076722;28;985;-45
2022/06/07 07:51:09;;;;;;;;;;;28.20;40.40;;;;;;5075474;28;976;-45
2022/06/07 07:53:37;;;;;;;;;;;28.30;40.30;;;;;;5074350;28;1898;-45
2022/06/07 07:56:07;;;;;;;;;;;28.30;40.20;;;;;;5075968;28;1022;-44
2022/06/07 07:58:34;;;;;;;;;;;28.20;40.30;;;;;;5075989;28;1022;-43
2022/06/07 08:01:01;;;;;;;;;;;28.20;40.30;;;;;;5075960;28;933;-42
2022/06/07 08:03:27;;;;;;;;;;;28.20;40.40;;;;;;5075993;28;1005;-42
2022/06/07 08:05:54;;;;;;;;;;;28.20;40.40;;;;;;5075288;28;1003;-42
2022/06/07 08:08:21;;;;;;;;;;;28.10;40.20;;;;;;5075874;28;989;-42
2022/06/07 08:10:52;;;;;;;;;;;28.10;40.30;;;;;;5074975;28;1023;-42
2022/06/07 08:13:19;;;;;;;;;;;28.20;40.30;;;;;;5074840;28;1914;-42
2022/06/07 08:15:46;;;;;;;;;;;28.10;40.30;;;;;;5075868;28;963;-42
2022/06/07 08:18:13;;;;;;;;;;;28.20;40.20;;;;;;5075482;28;931;-41
2022/06/07 08:20:40;;;;;;;;;;;28.20;40.40;;;;;;5075325;28;995;-42
2022/06/07 08:23:07;;;;;;;;;;;28.20;40.00;;;;;;5075258;28;984;-43
2022/06/07 08:25:35;;;;;;;;;;;28.10;40.50;;;;;;5075253;28;857;-42
2022/06/07 08:28:03;;;;;;;;;;;28.10;40.40;;;;;;5074848;28;985;-43
2022/06/07 08:30:30;;;;;;;;;;;28.00;40.50;;;;;;5075411;28;955;-45
2022/06/07 08:32:57;;;;;;;;;;;28.10;40.40;;;;;;5075194;28;1975;-45
2022/06/07 08:38:09;;;;;;;;;;;28.00;40.50;;;;;;5075037;28;900;-44
2022/06/07 08:40:38;;;;;;;;;;;28.00;40.70;;;;;;5076003;28;966;-45
2022/06/07 08:43:12;;;;;;;;;;;27.90;40.70;;;;;;5076956;28;960;-45
2022/06/07 08:45:40;;;;;;;;;;;27.90;40.70;;;;;;5076454;28;1001;-43
2022/06/07 08:48:11;;;;;;;;;;;27.90;40.70;;;;;;5075817;28;1401;-44
2022/06/07 08:50:40;;;;;;;;;;;27.90;40.90;;;;;;5075907;28;976;-43
2022/06/07 08:53:12;;;;;;;;;;;27.90;40.70;;;;;;5074841;28;1906;-44
2022/06/07 08:55:42;;;;;;;;;;;27.90;40.80;;;;;;5074200;28;1000;-43
2022/06/07 08:58:14;;;;;;;;;;;27.90;40.70;;;;;;5075283;28;997;-43
2022/06/07 09:00:43;;;;;;;;;;;27.90;40.60;;;;;;5074260;28;941;-44
2022/06/07 09:03:26;;;;;;;;;;;28.00;40.60;;;;;;5073669;28;896;-44
2022/06/07 09:05:55;;;;;;;;;;;28.10;40.40;;;;;;5073097;28;999;-43
2022/06/07 09:08:21;;;;;;;;;;;28.00;40.30;;;;;;5071961;28;946;-43
2022/06/07 09:13:35;;;;;;;;;;;28.10;40.40;;;;;;5073347;28;1902;-44
2022/06/07 09:16:03;;;;;;;;;;;28.00;40.50;;;;;;5074256;28;1004;-44
2022/06/07 09:18:30;;;;;;;;;;;27.90;40.70;;;;;;5074272;28;927;-42
2022/06/07 09:20:59;;;;;;;;;;;27.90;40.60;;;;;;5074569;28;904;-43
2022/06/07 09:23:28;;;;;;;;;;;28.00;40.70;;;;;;5072616;28;996;-45
2022/06/07 09:25:55;;;;;;;;;;;27.90;40.50;;;;;;5072687;28;850;-43
2022/06/07 09:28:26;;;;;;;;;;;27.90;40.80;;;;;;5073023;28;1786;-45
2022/06/07 09:30:59;;;;;;;;;;;27.90;40.80;;;;;;5072819;28;947;-43
2022/06/07 09:33:27;;;;;;;;;;;27.90;40.70;;;;;;5073175;28;1966;-43
2022/06/07 09:35:57;;;;;;;;;;;27.90;41.20;;;;;;5074289;28;961;-44
2022/06/07 09:38:28;;;;;;;;;;;27.80;40.90;;;;;;5074049;28;885;-44
2022/06/07 09:40:56;;;;;;;;;;;27.80;40.90;;;;;;5073770;28;1007;-44
2022/06/07 09:43:25;;;;;;;;;;;27.80;41.00;;;;;;5072543;28;955;-43
2022/06/07 09:45:54;;;;;;;;;;;27.70;41.00;;;;;;5073110;28;1026;-46
2022/06/07 09:48:26;;;;;;;;;;;27.70;41.20;;;;;;5074063;28;1003;-43
2022/06/07 09:50:57;;;;;;;;;;;27.70;41.00;;;;;;5074257;28;948;-45
2022/06/07 09:53:25;;;;;;;;;;;27.80;41.20;;;;;;5074406;28;1878;-45
2022/06/07 09:55:56;;;;;;;;;;;27.80;41.10;;;;;;5074944;28;984;-44
2022/06/07 09:58:34;;;;;;;;;;;27.80;41.10;;;;;;5075918;28;986;-45
2022/06/07 10:01:02;;;;;;;;;;;27.80;41.30;;;;;;5075204;28;944;-46
2022/06/07 10:03:39;;;;;;;;;;;27.70;41.10;;;;;;5073734;28;995;-43
2022/06/07 10:06:10;;;;;;;;;;;27.70;41.10;;;;;;5075589;28;1054;-43
2022/06/07 10:08:44;;;;;;;;;;;27.70;41.10;;;;;;5074586;28;1013;-44
2022/06/07 10:11:14;;;;;;;;;;;27.70;41.30;;;;;;5075917;28;996;-43
2022/06/07 10:13:48;;;;;;;;;;;27.70;41.10;;;;;;5075046;28;1961;-43
2022/06/07 10:16:21;;;;;;;;;;;27.80;42.30;;;;;;5073308;28;953;-44
2022/06/07 10:18:55;;;;;;;;;;;27.80;41.10;;;;;;5074478;28;1438;-43
2022/06/07 10:21:30;;;;;;;;;;;27.80;41.10;;;;;;5088591;28;1780;-43
2022/06/07 10:24:12;;;;;;;;;;;27.80;41.10;;;;;;5096106;28;1050;-45
2022/06/07 10:26:46;;;;;;;;;;;27.80;41.10;;;;;;5093738;28;1534;-44
2022/06/07 10:29:19;;;;;;;;;;;27.80;41.00;;;;;;5094809;28;1007;-43
2022/06/07 10:31:50;;;;;;;;;;;27.80;41.10;;;;;;5094010;28;1039;-44
2022/06/07 10:34:25;;;;;;;;;;;27.80;41.00;;;;;;5093754;28;1979;-43
2022/06/07 10:36:56;;;;;;;;;;;27.80;41.10;;;;;;5094910;28;943;-44
2022/06/07 10:39:33;;;;;;;;;;;27.80;41.10;;;;;;5093879;28;991;-42
2022/06/07 10:42:05;;;;;;;;;;;27.80;41.00;;;;;;5094956;28;1089;-42
2022/06/07 10:44:34;;;;;;;;;;;27.80;41.10;;;;;;5094439;28;1047;-43
2022/06/07 10:47:09;;;;;;;;;;;27.80;41.10;;;;;;5094716;28;1017;-42
2022/06/07 10:49:43;;;;;;;;;;;27.80;41.00;;;;;;5094919;28;1022;-44
2022/06/07 10:52:24;;;;;;;;;;;27.80;41.10;;;;;;5095931;28;960;-43
2022/06/07 10:54:55;;;;;;;;;;;27.80;41.10;;;;;;5094653;28;1910;-42
2022/06/07 10:57:25;;;;;;;;;;;27.90;41.00;;;;;;5096127;28;925;-42
2022/06/07 10:59:53;;;;;;;;;;;27.90;41.00;;;;;;5096036;28;1111;-42
2022/06/07 11:02:24;;;;;;;;;;;27.90;41.00;;;;;;5096090;28;1758;-42
2022/06/07 11:10:30;;;;;;;;;;;28.00;40.90;;;;;;5094733;28;671;-42
2022/06/07 11:13:01;;;;;;;;;;;28.00;40.90;;;;;;5095242;28;1022;-42
2022/06/07 11:15:35;;;;;;;;;;;28.00;41.10;;;;;;5095880;28;1918;-42
2022/06/07 11:18:05;;;;;;;;;;;28.00;40.90;;;;;;5094501;28;988;-42
2022/06/07 11:20:34;;;;;;;;;;;28.00;40.90;;;;;;5094884;28;1808;-42
2022/06/07 11:23:06;;;;;;;;;;;28.00;40.90;;;;;;5095856;28;904;-42
2022/06/07 11:25:34;;;;;;;;;;;27.90;41.10;;;;;;5095823;28;892;-42
2022/06/07 11:28:06;;;;;;;;;;;27.90;41.10;;;;;;5095811;28;960;-42
2022/06/07 11:30:48;;;;;;;;;;;27.90;41.10;;;;;;5095471;28;898;-42
2022/06/07 11:33:32;;;;;;;;;;;28.00;41.00;;;;;;5095831;28;980;-42
2022/06/07 11:36:23;;;;;;;;;;;28.00;40.90;;;;;;5095852;28;1910;-43
2022/06/07 11:39:01;;;;;;;;;;;28.00;42.00;;;;;;5096041;28;1038;-42
2022/06/07 11:41:41;;;;;;;;;;;28.00;40.90;;;;;;5095117;28;976;-42
2022/06/07 11:44:41;;;;;;;;;;;28.00;40.80;;;;;;5095218;28;1000;-42
2022/06/07 11:47:22;;;;;;;;;;;28.00;41.00;;;;;;5094446;28;1043;-42
2022/06/07 11:50:03;;;;;;;;;;;28.10;40.80;;;;;;5095155;28;1000;-42
2022/06/07 11:52:32;;;;;;;;;;;28.10;40.80;;;;;;5094537;28;1007;-43
2022/06/07 11:55:08;;;;;;;;;;;28.00;40.90;;;;;;5093929;28;1967;-42
2022/06/07 11:57:37;;;;;;;;;;;27.90;41.00;;;;;;5095185;28;967;-42
2022/06/07 12:00:25;;;;;;;;;;;27.90;41.10;;;;;;5095183;28;1794;-42
2022/06/07 12:03:10;;;;;;;;;;;28.00;41.10;;;;;;5094294;28;936;-42
2022/06/07 12:05:40;;;;;;;;;;;27.90;41.10;;;;;;5094316;28;1010;-45
2022/06/07 12:08:14;;;;;;;;;;;27.90;41.10;;;;;;5094268;28;905;-44
2022/06/07 12:10:42;;;;;;;;;;;27.90;41.10;;;;;;5094505;28;1011;-46
2022/06/07 12:13:12;;;;;;;;;;;27.90;41.10;;;;;;5095448;28;1086;-45
2022/06/07 12:15:42;;;;;;;;;;;27.90;41.20;;;;;;5094417;28;1971;-44
2022/06/07 12:18:17;;;;;;;;;;;27.90;41.10;;;;;;5094536;28;1417;-44
2022/06/07 12:20:45;;;;;;;;;;;27.90;41.10;;;;;;5095544;28;1010;-45
2022/06/07 12:23:20;;;;;;;;;;;27.90;41.20;;;;;;5095905;28;952;-45
2022/06/07 12:25:59;;;;;;;;;;;27.90;41.20;;;;;;5096087;28;1011;-45
2022/06/07 12:28:27;;;;;;;;;;;27.90;41.10;;;;;;5096110;28;1039;-44
2022/06/07 12:30:54;;;;;;;;;;;27.90;41.10;;;;;;5095250;28;932;-45
2022/06/07 12:33:24;;;;;;;;;;;27.90;41.20;;;;;;5094605;28;956;-45
2022/06/07 12:35:52;;;;;;;;;;;27.90;41.10;;;;;;5094857;28;1986;-45
2022/06/07 12:38:21;;;;;;;;;;;27.90;41.20;;;;;;5093985;28;984;-45
2022/06/07 12:40:49;;;;;;;;;;;27.90;41.20;;;;;;5093795;28;996;-44
2022/06/07 12:43:20;;;;;;;;;;;28.00;41.20;;;;;;5094019;28;984;-45
2022/06/07 12:45:54;;;;;;;;;;;28.00;41.30;;;;;;5094438;28;976;-45
2022/06/07 12:48:21;;;;;;;;;;;27.90;41.20;;;;;;5095116;28;986;-45
2022/06/07 12:50:48;;;;;;;;;;;28.00;41.20;;;;;;5094393;28;1007;-45
2022/06/07 12:53:19;;;;;;;;;;;28.00;41.20;;;;;;5094369;28;975;-45
2022/06/07 12:55:53;;;;;;;;;;;28.00;41.20;;;;;;5094194;28;1891;-45
2022/06/07 12:58:22;;;;;;;;;;;28.00;41.20;;;;;;5093880;28;1194;-45
2022/06/07 13:00:49;;;;;;;;;;;28.00;41.20;;;;;;5095624;28;888;-44
2022/06/07 13:03:22;;;;;;;;;;;28.00;41.20;;;;;;5094160;28;974;-45
2022/06/07 13:05:51;;;;;;;;;;;28.00;41.30;;;;;;5081325;28;972;-45
2022/06/07 13:08:27;;;;;;;;;;;28.00;41.20;;;;;;5085806;28;1005;-45
2022/06/07 13:10:57;;;;;;;;;;;28.00;41.20;;;;;;5096570;28;976;-46
2022/06/07 13:13:27;;;;;;;;;;;27.90;41.20;;;;;;5097035;28;1264;-45
2022/06/07 13:15:56;;;;;;;;;;;28.00;41.20;;;;;;5089695;28;1902;-47
2022/06/07 13:18:25;;;;;;;;;;;28.00;41.30;;;;;;5095411;28;994;-44
2022/06/07 13:21:04;;;;;;;;;;;28.00;41.20;;;;;;5083749;28;1008;-47
2022/06/07 13:23:35;;;;;;;;;;;28.00;41.20;;;;;;5091329;28;978;-44
2022/06/07 13:26:11;;;;;;;;;;;28.00;41.20;;;;;;5096465;28;1012;-45
2022/06/07 13:28:38;;;;;;;;;;;27.90;41.30;;;;;;5093622;28;1054;-45
2022/06/07 13:31:25;;;;;;;;;;;27.90;41.40;;;;;;5086390;28;920;-44
2022/06/07 13:33:59;;;;;;;;;;;28.00;41.40;;;;;;5086174;28;975;-46
2022/06/07 13:36:36;;;;;;;;;;;28.00;41.30;;;;;;5096209;28;1967;-42
2022/06/07 13:39:04;;;;;;;;;;;28.00;41.20;;;;;;5093142;28;999;-42
2022/06/07 13:41:32;;;;;;;;;;;28.00;41.30;;;;;;5093060;28;1015;-42
2022/06/07 13:44:01;;;;;;;;;;;28.00;41.30;;;;;;5096008;28;1070;-42
2022/06/07 13:46:30;;;;;;;;;;;28.00;41.30;;;;;;5096099;28;1007;-42
2022/06/07 13:54:26;;;;;;;;;;;28.00;42.50;;;;;;5093205;28;1893;-42
2022/06/07 13:56:54;;;;;;;;;;;28.00;41.50;;;;;;5095408;28;948;-43
2022/06/07 13:59:21;;;;;;;;;;;28.00;41.40;;;;;;5094874;28;964;-43
2022/06/07 14:01:49;;;;;;;;;;;28.00;41.30;;;;;;5094875;28;1011;-43
2022/06/07 14:04:18;;;;;;;;;;;28.00;41.30;;;;;;5094541;28;960;-42
2022/06/07 14:06:45;;;;;;;;;;;28.00;41.30;;;;;;5095281;28;872;-44
2022/06/07 14:09:14;;;;;;;;;;;28.00;41.20;;;;;;5093924;28;888;-43
2022/06/07 14:11:41;;;;;;;;;;;28.00;41.20;;;;;;5093220;28;1000;-43
2022/06/07 14:14:09;;;;;;;;;;;28.10;41.10;;;;;;5092393;28;1023;-45
2022/06/07 14:16:39;;;;;;;;;;;28.10;41.00;;;;;;5093333;28;1902;-45
2022/06/07 14:19:07;;;;;;;;;;;28.10;41.20;;;;;;5093206;28;1024;-44
2022/06/07 14:21:34;;;;;;;;;;;28.20;41.10;;;;;;5092670;28;960;-44
2022/06/07 14:24:01;;;;;;;;;;;28.10;41.20;;;;;;5094103;28;1000;-45
2022/06/07 14:26:28;;;;;;;;;;;28.00;41.20;;;;;;5094835;28;1019;-45
2022/06/07 14:28:55;;;;;;;;;;;28.00;41.20;;;;;;5096750;28;1033;-44
2022/06/07 14:31:25;;;;;;;;;;;28.10;41.20;;;;;;5096431;28;921;-44
2022/06/07 14:33:52;;;;;;;;;;;28.00;41.20;;;;;;5097230;28;960;-43
2022/06/07 14:36:20;;;;;;;;;;;28.00;41.20;;;;;;5096347;28;1906;-45
2022/06/07 14:38:47;;;;;;;;;;;28.10;41.30;;;;;;5096194;28;989;-43
2022/06/07 14:41:14;;;;;;;;;;;28.00;41.30;;;;;;5095052;28;1978;-44
2022/06/07 14:43:41;;;;;;;;;;;28.00;41.30;;;;;;5079270;28;1476;-45
2022/06/07 14:46:14;;;;;;;;;;;28.00;41.30;;;;;;5078745;28;936;-45
2022/06/07 14:48:45;;;;;;;;;;;28.00;41.40;;;;;;5076453;28;1066;-44
2022/06/07 14:51:18;;;;;;;;;;;28.10;41.40;;;;;;5076584;28;929;-44
2022/06/07 14:53:45;;;;;;;;;;;28.00;41.40;;;;;;5076521;28;1111;-43
2022/06/07 14:56:14;;;;;;;;;;;28.00;41.40;;;;;;5075927;28;1906;-44
2022/06/07 14:58:41;;;;;;;;;;;28.10;41.40;;;;;;5074555;28;1036;-44
2022/06/07 15:01:09;;;;;;;;;;;28.10;41.30;;;;;;5074864;28;1062;-45
2022/06/07 15:03:36;;;;;;;;;;;28.00;41.30;;;;;;5075804;28;933;-43
2022/06/07 15:06:05;;;;;;;;;;;28.00;41.40;;;;;;5075635;28;842;-42
2022/06/07 15:08:31;;;;;;;;;;;28.00;41.50;;;;;;5075624;28;1004;-44
2022/06/07 15:10:58;;;;;;;;;;;28.00;41.50;;;;;;5076197;28;1234;-44
2022/06/07 15:13:28;;;;;;;;;;;28.00;41.60;;;;;;5075521;28;1240;-42